Time;durP1;ratioP1;P1;durP2;ratioP2;P2;SDS_P1;SDS_P2;PMS_P1;PMS_P2;Temp;Humidity;BMP_temperature;BMP_pressure;BME280_temperature;BME280_humidity;BME280_pressure;Samples;Min_cycle;Max_cycle;Signal;HPM_P1;HPM_P2
2023/06/11 00:01:30;;;;;;;12.00;6.32;;;18.20;99.90;;;;;;6225829;22;20007;-80
2023/06/11 00:03:57;;;;;;;13.07;6.82;;;18.20;99.90;;;;;;6250700;22;20101;-80
2023/06/11 00:06:23;;;;;;;10.52;6.80;;;18.30;99.90;;;;;;6225543;22;20410;-82
2023/06/11 00:08:51;;;;;;;11.20;6.43;;;18.20;99.90;;;;;;6225355;22;20008;-81
2023/06/11 00:11:17;;;;;;;10.98;6.82;;;18.20;99.90;;;;;;6225874;22;20318;-82
2023/06/11 00:13:43;;;;;;;11.23;6.65;;;18.20;99.90;;;;;;6224556;22;20012;-81
2023/06/11 00:16:09;;;;;;;13.30;7.45;;;18.30;99.90;;;;;;6250711;22;20092;-80
2023/06/11 00:18:35;;;;;;;13.20;7.07;;;18.40;99.90;;;;;;6250798;22;20326;-81
2023/06/11 00:21:01;;;;;;;11.70;8.20;;;18.40;99.90;;;;;;6224712;22;20015;-80
2023/06/11 00:23:27;;;;;;;13.20;7.32;;;18.40;99.90;;;;;;6224543;22;20389;-80
2023/06/11 00:25:52;;;;;;;10.55;7.07;;;18.60;99.90;;;;;;6225863;22;20015;-80
2023/06/11 00:28:19;;;;;;;11.23;7.13;;;18.60;99.90;;;;;;6250914;22;20441;-80
2023/06/11 00:30:44;;;;;;;10.45;6.88;;;18.60;99.90;;;;;;6250349;22;20471;-80
2023/06/11 00:33:10;;;;;;;11.18;7.20;;;18.70;99.90;;;;;;6225177;22;20016;-80
2023/06/11 00:35:37;;;;;;;12.35;7.15;;;18.70;99.90;;;;;;6250671;22;20022;-81
2023/06/11 00:38:03;;;;;;;9.23;6.63;;;18.80;99.90;;;;;;6225437;22;20096;-80
2023/06/11 00:40:29;;;;;;;11.10;7.28;;;18.80;99.90;;;;;;6250160;22;20039;-80
2023/06/11 00:42:56;;;;;;;12.82;6.95;;;18.80;99.90;;;;;;6249679;22;20410;-81
2023/06/11 00:45:22;;;;;;;11.68;6.82;;;18.80;99.90;;;;;;6250104;22;20043;-81
2023/06/11 00:47:48;;;;;;;9.55;7.15;;;18.80;99.90;;;;;;6225421;22;20338;-80
2023/06/11 00:50:15;;;;;;;11.05;7.00;;;18.80;99.90;;;;;;6224974;22;20011;-81
2023/06/11 00:52:42;;;;;;;12.18;6.63;;;18.80;99.90;;;;;;6250197;22;20334;-80
2023/06/11 00:55:08;;;;;;;9.55;6.80;;;18.80;99.90;;;;;;6250079;22;20476;-80
2023/06/11 00:57:35;;;;;;;13.40;7.10;;;18.80;99.90;;;;;;6250597;22;20110;-80
2023/06/11 01:00:01;;;;;;;21.70;7.88;;;18.90;99.90;;;;;;6225359;22;20019;-80
2023/06/11 01:02:36;;;;;;;12.68;7.53;;;18.90;99.90;;;;;;6250043;22;20011;-80
2023/06/11 01:05:03;;;;;;;10.02;7.22;;;18.90;99.90;;;;;;6225063;22;20086;-81
2023/06/11 01:07:35;;;;;;;9.90;7.20;;;18.90;99.90;;;;;;6224948;22;20465;-81
2023/06/11 01:10:01;;;;;;;11.30;7.53;;;18.90;99.90;;;;;;6249974;22;20560;-81
2023/06/11 01:12:27;;;;;;;11.25;7.00;;;18.90;99.90;;;;;;6249811;22;20464;-80
2023/06/11 01:14:52;;;;;;;8.85;6.85;;;18.90;99.90;;;;;;6249594;22;20016;-81
2023/06/11 01:17:54;;;;;;;10.52;6.55;;;18.80;99.90;;;;;;6225339;22;20151;-81
2023/06/11 01:20:43;;;;;;;11.65;7.25;;;18.80;99.90;;;;;;6224081;22;20016;-81
2023/06/11 01:23:17;;;;;;;9.52;7.10;;;18.80;99.90;;;;;;6250293;22;20445;-81
2023/06/11 01:26:14;;;;;;;10.75;7.65;;;18.70;99.90;;;;;;6250328;22;20061;-80
2023/06/11 01:28:41;;;;;;;9.45;6.53;;;18.70;99.90;;;;;;6249855;22;20039;-80
2023/06/11 01:31:14;;;;;;;10.48;6.28;;;18.70;99.90;;;;;;6224953;22;20322;-80
2023/06/11 01:33:41;;;;;;;10.77;7.15;;;18.60;99.90;;;;;;6249907;22;20012;-80
2023/06/11 01:36:07;;;;;;;10.55;6.82;;;18.60;99.90;;;;;;6249652;22;20425;-80
2023/06/11 01:38:41;;;;;;;9.95;7.65;;;18.60;99.90;;;;;;6223911;22;20011;-80
2023/06/11 01:41:08;;;;;;;11.25;7.00;;;18.50;99.90;;;;;;6249099;22;20020;-81
2023/06/11 01:43:33;;;;;;;11.00;7.68;;;18.60;99.90;;;;;;6248549;22;20012;-81
2023/06/11 01:45:59;;;;;;;11.15;7.95;;;18.50;99.90;;;;;;6224110;22;20043;-80
2023/06/11 01:48:24;;;;;;;12.45;7.32;;;18.50;99.90;;;;;;6223902;22;20012;-81
2023/06/11 01:50:50;;;;;;;8.75;7.07;;;18.50;99.90;;;;;;6224013;22;20011;-80
2023/06/11 01:53:16;;;;;;;10.68;7.18;;;18.50;99.90;;;;;;6249687;22;20077;-80
2023/06/11 01:55:42;;;;;;;9.85;7.75;;;18.50;99.90;;;;;;6224495;22;20011;-81
2023/06/11 01:58:08;;;;;;;9.48;7.82;;;18.40;99.90;;;;;;6224214;22;20011;-81
2023/06/11 02:00:34;;;;;;;9.65;7.50;;;18.40;99.90;;;;;;6224655;22;20091;-81
2023/06/11 02:03:01;;;;;;;10.75;7.60;;;18.40;99.90;;;;;;6249184;22;20022;-81
2023/06/11 02:05:27;;;;;;;9.27;7.88;;;18.40;99.90;;;;;;6249703;22;20041;-82
2023/06/11 02:07:53;;;;;;;10.98;7.90;;;18.40;99.90;;;;;;6223108;22;20386;-81
2023/06/11 02:10:18;;;;;;;10.02;7.90;;;18.20;99.90;;;;;;6249946;22;20008;-82
2023/06/11 02:12:44;;;;;;;9.45;7.47;;;18.30;99.90;;;;;;6224093;22;20069;-82
2023/06/11 02:15:10;;;;;;;11.57;8.10;;;18.30;99.90;;;;;;6249631;22;20055;-79
2023/06/11 02:17:35;;;;;;;9.73;8.13;;;18.20;99.90;;;;;;6223931;22;20099;-79
2023/06/11 02:20:05;;;;;;;10.40;7.65;;;18.20;99.90;;;;;;6224172;22;20103;-79
2023/06/11 02:22:33;;;;;;;10.07;7.63;;;18.20;99.90;;;;;;6222194;22;20011;-79
2023/06/11 02:25:00;;;;;;;12.07;7.88;;;18.20;99.90;;;;;;6249221;22;20008;-79
2023/06/11 02:27:25;;;;;;;12.05;8.20;;;18.20;99.90;;;;;;6222560;22;20018;-79
2023/06/11 02:29:51;;;;;;;11.52;7.97;;;18.20;99.90;;;;;;6249644;22;20082;-79
2023/06/11 02:32:16;;;;;;;10.40;8.20;;;18.20;99.90;;;;;;6249108;22;20091;-79
2023/06/11 02:34:42;;;;;;;10.65;8.80;;;18.20;99.90;;;;;;6249641;22;20015;-80
2023/06/11 02:37:08;;;;;;;11.40;8.70;;;18.10;99.90;;;;;;6224336;22;20343;-79
2023/06/11 02:39:34;;;;;;;12.20;8.55;;;18.10;99.90;;;;;;6224457;22;20446;-79
2023/06/11 02:41:59;;;;;;;11.57;8.32;;;18.10;99.90;;;;;;6224096;22;20016;-79
2023/06/11 02:44:25;;;;;;;10.15;7.90;;;18.10;99.90;;;;;;6223499;22;20535;-79
2023/06/11 02:46:51;;;;;;;10.32;8.52;;;18.10;99.90;;;;;;6247659;22;20095;-79
2023/06/11 02:49:16;;;;;;;11.40;8.27;;;18.00;99.90;;;;;;6249075;22;20345;-79
2023/06/11 02:51:42;;;;;;;12.00;8.57;;;18.00;99.90;;;;;;6247809;22;20354;-79
2023/06/11 02:54:08;;;;;;;11.68;8.70;;;18.00;99.90;;;;;;6223708;22;20011;-79
2023/06/11 02:56:33;;;;;;;11.45;8.30;;;17.90;99.90;;;;;;6223095;22;20008;-80
2023/06/11 02:58:59;;;;;;;10.38;7.90;;;17.90;99.90;;;;;;6223683;22;20011;-80
2023/06/11 03:01:25;;;;;;;12.45;9.27;;;17.90;99.90;;;;;;6246918;22;20507;-80
2023/06/11 03:03:50;;;;;;;11.35;8.52;;;17.90;99.90;;;;;;6223966;22;20350;-80
2023/06/11 03:06:16;;;;;;;10.73;8.85;;;17.90;99.90;;;;;;6248664;22;20054;-79
2023/06/11 03:08:41;;;;;;;10.68;8.98;;;17.90;99.90;;;;;;6249010;22;20469;-80
2023/06/11 03:11:07;;;;;;;12.48;9.45;;;17.80;99.90;;;;;;6247840;22;20110;-80
2023/06/11 03:13:32;;;;;;;11.18;8.98;;;17.80;99.90;;;;;;6249060;22;20019;-80
2023/06/11 03:15:58;;;;;;;11.30;9.63;;;17.70;99.90;;;;;;6223097;22;20011;-79
2023/06/11 03:18:23;;;;;;;11.45;8.80;;;17.80;99.90;;;;;;6223307;22;20012;-80
2023/06/11 03:20:49;;;;;;;11.85;9.02;;;17.70;99.90;;;;;;6223697;22;20051;-79
2023/06/11 03:23:15;;;;;;;11.52;9.23;;;17.70;99.90;;;;;;6248565;22;20012;-80
2023/06/11 03:25:42;;;;;;;13.23;9.88;;;17.60;99.90;;;;;;6248879;22;20057;-80
2023/06/11 03:28:07;;;;;;;14.35;10.25;;;17.60;99.90;;;;;;6247659;22;20752;-80
2023/06/11 03:30:33;;;;;;;13.88;10.25;;;17.60;99.90;;;;;;6249001;22;20037;-80
2023/06/11 03:32:59;;;;;;;11.90;9.55;;;17.50;99.90;;;;;;6223708;22;20011;-80
2023/06/11 03:35:24;;;;;;;12.75;10.18;;;17.50;99.90;;;;;;6248334;22;20015;-80
2023/06/11 03:37:50;;;;;;;13.63;10.30;;;17.40;99.90;;;;;;6223645;22;20011;-80
2023/06/11 03:40:15;;;;;;;12.18;10.60;;;17.40;99.90;;;;;;6221742;22;20015;-79
2023/06/11 03:42:41;;;;;;;14.13;10.32;;;17.40;99.90;;;;;;6221891;22;20047;-80
2023/06/11 03:45:07;;;;;;;13.82;10.93;;;17.30;99.90;;;;;;6248340;22;20008;-80
2023/06/11 03:47:32;;;;;;;13.15;10.70;;;17.30;99.90;;;;;;6248425;22;20489;-79
2023/06/11 03:49:58;;;;;;;15.40;10.93;;;17.30;99.90;;;;;;6223153;22;20046;-80
2023/06/11 03:52:24;;;;;;;13.70;10.82;;;17.40;99.90;;;;;;6248017;22;20004;-80
2023/06/11 03:54:49;;;;;;;13.13;10.98;;;17.30;99.90;;;;;;6222591;22;20396;-80
2023/06/11 03:57:17;;;;;;;11.93;10.45;;;17.30;99.90;;;;;;6247796;22;20043;-79
2023/06/11 03:59:43;;;;;;;15.50;11.35;;;17.30;99.90;;;;;;6248255;22;20023;-79
2023/06/11 04:02:08;;;;;;;11.88;9.98;;;17.20;99.90;;;;;;6223170;22;20011;-79
2023/06/11 04:04:34;;;;;;;13.35;10.52;;;17.20;99.90;;;;;;6223275;22;20015;-80
2023/06/11 04:07:00;;;;;;;14.48;10.82;;;17.30;99.90;;;;;;6222858;22;20012;-79
2023/06/11 04:09:25;;;;;;;12.32;11.02;;;17.30;99.90;;;;;;6248646;22;20050;-79
2023/06/11 04:11:51;;;;;;;13.60;11.30;;;17.20;99.90;;;;;;6222718;22;20007;-79
2023/06/11 04:14:16;;;;;;;12.15;10.77;;;17.20;99.90;;;;;;6249261;22;20015;-79
2023/06/11 04:16:42;;;;;;;13.73;11.15;;;17.20;99.90;;;;;;6225190;22;20346;-80
2023/06/11 04:19:07;;;;;;;13.70;11.07;;;17.30;99.90;;;;;;6224161;22;20065;-80
2023/06/11 04:21:33;;;;;;;13.07;11.35;;;17.30;99.90;;;;;;6250219;22;20012;-80
2023/06/11 04:23:59;;;;;;;13.75;10.45;;;17.30;99.90;;;;;;6249803;22;20535;-80
2023/06/11 04:26:25;;;;;;;16.90;11.63;;;17.30;99.90;;;;;;6224414;22;20042;-80
2023/06/11 04:28:52;;;;;;;14.23;11.32;;;17.30;99.90;;;;;;6224093;22;20011;-80
2023/06/11 04:31:18;;;;;;;13.90;11.70;;;17.30;99.90;;;;;;6224264;22;20091;-79
2023/06/11 04:33:46;;;;;;;15.98;11.63;;;17.40;99.90;;;;;;6250237;22;20043;-80
2023/06/11 04:36:11;;;;;;;14.48;10.90;;;17.40;99.90;;;;;;6250034;22;20466;-80
2023/06/11 04:38:38;;;;;;;15.68;11.40;;;17.40;99.90;;;;;;6250482;22;20067;-80
2023/06/11 04:41:11;;;;;;;12.32;10.77;;;17.50;99.90;;;;;;6224168;22;20034;-80
2023/06/11 04:43:37;;;;;;;15.27;11.35;;;17.50;99.90;;;;;;6250001;22;20019;-80
2023/06/11 04:46:03;;;;;;;14.13;11.18;;;17.50;99.90;;;;;;6224654;22;20337;-80
2023/06/11 04:48:34;;;;;;;17.15;11.30;;;17.60;99.90;;;;;;6224737;22;20008;-79
2023/06/11 04:51:01;;;;;;;15.75;11.50;;;17.60;99.90;;;;;;6250610;22;20062;-80
2023/06/11 04:53:28;;;;;;;12.55;10.93;;;17.70;99.90;;;;;;6249544;22;20022;-79
2023/06/11 04:55:55;;;;;;;12.82;11.43;;;17.70;99.90;;;;;;6225124;22;20050;-80
2023/06/11 04:58:25;;;;;;;11.93;10.70;;;17.80;99.90;;;;;;6249127;22;20413;-81
2023/06/11 05:00:52;;;;;;;15.45;11.00;;;17.80;99.90;;;;;;6225315;22;20438;-80
2023/06/11 05:03:19;;;;;;;13.65;10.90;;;17.90;99.90;;;;;;6249829;22;20130;-81
2023/06/11 05:05:51;;;;;;;13.50;11.05;;;17.90;99.90;;;;;;6224985;22;20016;-81
2023/06/11 05:08:24;;;;;;;13.55;10.55;;;18.00;99.90;;;;;;6224513;22;20023;-81
2023/06/11 05:10:50;;;;;;;14.13;11.30;;;18.00;99.90;;;;;;6225161;22;20035;-81
2023/06/11 05:13:22;;;;;;;14.45;11.18;;;18.10;99.90;;;;;;6249537;22;20011;-81
2023/06/11 05:15:48;;;;;;;14.25;11.25;;;18.10;99.90;;;;;;6249982;22;20348;-81
2023/06/11 05:18:14;;;;;;;13.75;10.93;;;18.20;99.90;;;;;;6250249;22;20008;-81
2023/06/11 05:20:39;;;;;;;13.45;10.55;;;18.30;99.90;;;;;;6224708;22;20054;-80
2023/06/11 05:23:05;;;;;;;14.48;11.48;;;18.30;99.90;;;;;;6250121;22;20543;-80
2023/06/11 05:25:31;;;;;;;44.83;12.75;;;18.40;99.90;;;;;;6224008;22;20458;-80
2023/06/11 05:28:01;;;;;;;14.35;10.95;;;18.50;99.90;;;;;;6224363;22;20007;-81
2023/06/11 05:30:29;;;;;;;13.55;11.43;;;18.60;99.90;;;;;;6249762;22;20106;-80
2023/06/11 05:32:56;;;;;;;13.93;10.80;;;18.60;99.90;;;;;;6223544;22;20018;-80
2023/06/11 05:35:24;;;;;;;13.68;10.90;;;18.80;99.90;;;;;;6250090;22;20034;-80
2023/06/11 05:37:50;;;;;;;14.02;11.88;;;18.90;99.90;;;;;;6223311;22;20461;-80
2023/06/11 05:40:16;;;;;;;19.60;11.48;;;18.90;99.90;;;;;;6250072;22;20015;-80
2023/06/11 05:42:42;;;;;;;15.43;11.45;;;19.00;99.90;;;;;;6215004;22;20126;-80
2023/06/11 05:45:07;;;;;;;13.00;11.20;;;19.10;99.90;;;;;;6219686;22;20046;-80
2023/06/11 05:47:34;;;;;;;14.57;11.45;;;19.10;99.90;;;;;;6246190;22;20065;-80
2023/06/11 05:50:00;;;;;;;15.73;11.63;;;19.20;99.90;;;;;;6248086;22;20345;-80
2023/06/11 05:52:26;;;;;;;14.95;11.32;;;19.30;99.90;;;;;;6223871;22;20016;-80
2023/06/11 05:54:52;;;;;;;17.88;11.07;;;19.50;99.90;;;;;;6223143;22;20008;-80
2023/06/11 05:57:22;;;;;;;15.85;10.80;;;19.50;99.90;;;;;;6248625;22;20015;-80
2023/06/11 05:59:48;;;;;;;14.30;10.70;;;19.60;99.90;;;;;;6248567;22;20012;-80
2023/06/11 06:02:15;;;;;;;15.75;10.80;;;19.80;99.90;;;;;;6249460;22;20442;-80
2023/06/11 06:04:40;;;;;;;14.63;11.65;;;19.90;99.90;;;;;;6222838;22;20008;-80
2023/06/11 06:07:06;;;;;;;16.05;10.70;;;20.00;99.90;;;;;;6223832;22;20020;-79
2023/06/11 06:09:33;;;;;;;13.02;11.05;;;20.10;99.90;;;;;;6223032;22;20438;-80
2023/06/11 06:11:59;;;;;;;13.68;10.98;;;20.20;99.90;;;;;;6248505;22;20011;-80
2023/06/11 06:14:25;;;;;;;12.15;10.50;;;20.30;99.90;;;;;;6222284;22;20458;-80
2023/06/11 06:16:50;;;;;;;11.73;10.32;;;20.40;99.90;;;;;;6248003;22;20015;-80
2023/06/11 06:19:16;;;;;;;14.55;10.02;;;20.50;99.90;;;;;;6249169;22;20022;-80
2023/06/11 06:21:42;;;;;;;16.67;11.68;;;20.60;99.90;;;;;;6223881;22;20038;-79
2023/06/11 06:24:07;;;;;;;11.77;10.57;;;20.70;99.90;;;;;;6223336;22;20019;-80
2023/06/11 06:26:33;;;;;;;13.57;10.68;;;20.80;99.90;;;;;;6247951;22;20341;-80
2023/06/11 06:28:59;;;;;;;13.02;11.15;;;20.90;99.90;;;;;;6223912;22;20012;-79
2023/06/11 06:31:25;;;;;;;12.50;10.63;;;21.00;99.90;;;;;;6247738;22;20015;-80
2023/06/11 06:33:51;;;;;;;13.13;10.05;;;21.00;99.90;;;;;;6222717;22;20030;-80
2023/06/11 06:36:19;;;;;;;12.30;10.70;;;21.10;99.90;;;;;;6249077;22;20015;-79
2023/06/11 06:38:46;;;;;;;12.57;9.70;;;21.20;99.90;;;;;;6247839;22;20090;-79
2023/06/11 06:41:11;;;;;;;11.23;9.93;;;21.30;99.90;;;;;;6223255;22;20094;-79
2023/06/11 06:43:37;;;;;;;13.15;10.32;;;21.50;99.90;;;;;;6248018;22;20043;-79
2023/06/11 06:46:03;;;;;;;12.60;10.25;;;21.50;99.90;;;;;;6222784;22;20015;-79
2023/06/11 06:48:28;;;;;;;11.85;9.68;;;21.70;99.90;;;;;;6222804;22;20365;-79
2023/06/11 06:50:54;;;;;;;14.10;10.80;;;21.60;99.90;;;;;;6248476;22;20018;-78
2023/06/11 06:53:19;;;;;;;16.30;11.15;;;21.80;99.90;;;;;;6223377;22;20010;-79
2023/06/11 06:55:45;;;;;;;13.68;9.60;;;21.90;99.90;;;;;;6248203;22;20457;-78
2023/06/11 06:58:11;;;;;;;12.45;9.88;;;21.90;99.90;;;;;;6248132;22;20011;-79
2023/06/11 07:00:37;;;;;;;11.45;10.05;;;22.10;99.90;;;;;;6248359;22;20061;-80
2023/06/11 07:03:02;;;;;;;12.13;9.90;;;22.10;99.90;;;;;;6247066;22;20346;-79
2023/06/11 07:05:28;;;;;;;13.68;10.48;;;22.20;99.90;;;;;;6248637;22;20012;-80
2023/06/11 07:07:55;;;;;;;19.98;9.77;;;22.30;99.90;;;;;;6222537;22;20611;-79
2023/06/11 07:10:20;;;;;;;11.15;9.50;;;22.40;99.90;;;;;;6221859;22;20445;-80
2023/06/11 07:12:46;;;;;;;12.40;9.98;;;22.50;99.90;;;;;;6247383;22;20018;-80
2023/06/11 07:15:11;;;;;;;13.63;9.73;;;22.60;99.90;;;;;;6223058;22;20019;-79
2023/06/11 07:17:37;;;;;;;20.73;10.20;;;22.60;99.90;;;;;;6247884;22;20263;-79
2023/06/11 07:20:07;;;;;;;12.25;9.90;;;22.70;99.90;;;;;;6248438;22;20023;-80
2023/06/11 07:22:33;;;;;;;13.73;10.52;;;22.80;99.90;;;;;;6247387;22;20023;-89
2023/06/11 07:25:00;;;;;;;14.65;10.13;;;22.90;99.90;;;;;;6222562;22;20012;-86
2023/06/11 07:27:27;;;;;;;11.23;9.50;;;23.00;99.90;;;;;;6223932;22;20062;-87
2023/06/11 07:29:52;;;;;;;13.00;9.88;;;22.90;99.90;;;;;;6223102;22;20008;-79
2023/06/11 07:32:18;;;;;;;17.63;10.02;;;22.90;99.90;;;;;;6248481;22;20073;-76
2023/06/11 07:34:44;;;;;;;12.65;9.82;;;23.10;99.90;;;;;;6223092;22;20011;-77
2023/06/11 07:37:10;;;;;;;13.75;10.23;;;23.10;99.90;;;;;;6223486;22;20016;-79
2023/06/11 07:39:35;;;;;;;12.00;9.80;;;23.20;99.90;;;;;;6248190;22;20523;-78
2023/06/11 07:42:01;;;;;;;12.32;9.75;;;23.30;99.90;;;;;;6222891;22;20023;-78
2023/06/11 07:44:27;;;;;;;13.35;9.73;;;23.40;99.90;;;;;;6223358;22;20034;-80
2023/06/11 07:46:53;;;;;;;11.40;8.82;;;23.50;99.90;;;;;;6248693;22;20469;-79
2023/06/11 07:49:18;;;;;;;11.68;10.05;;;23.50;99.90;;;;;;6224707;22;20012;-79
2023/06/11 07:51:46;;;;;;;11.50;9.63;;;23.60;99.90;;;;;;6223609;22;20014;-79
2023/06/11 07:54:11;;;;;;;11.27;8.95;;;23.70;99.90;;;;;;6250379;22;20072;-78
2023/06/11 07:56:37;;;;;;;11.23;9.57;;;23.70;99.90;;;;;;6225326;22;20508;-79
2023/06/11 07:59:06;;;;;;;11.23;9.02;;;23.90;99.90;;;;;;6224353;22;20469;-80
2023/06/11 08:01:32;;;;;;;10.93;9.30;;;23.90;99.90;;;;;;6224603;22;20016;-79
2023/06/11 08:03:57;;;;;;;12.68;9.55;;;24.00;99.90;;;;;;6251002;22;20442;-79
2023/06/11 08:06:23;;;;;;;11.98;9.38;;;24.20;99.90;;;;;;6224455;22;20085;-79
2023/06/11 08:08:50;;;;;;;11.95;8.98;;;24.20;99.90;;;;;;6224603;22;20109;-79
2023/06/11 08:11:16;;;;;;;10.60;8.13;;;24.30;99.90;;;;;;6225185;22;20015;-79
2023/06/11 08:13:41;;;;;;;15.10;9.20;;;24.40;99.90;;;;;;6249932;22;20008;-79
2023/06/11 08:16:08;;;;;;;11.65;9.10;;;24.50;99.90;;;;;;6250240;22;20016;-79
2023/06/11 08:18:33;;;;;;;11.43;8.43;;;24.50;99.90;;;;;;6248688;22;20018;-78
2023/06/11 08:21:00;;;;;;;11.23;9.23;;;24.60;99.90;;;;;;6250313;22;20082;-78
2023/06/11 08:23:26;;;;;;;12.18;8.95;;;24.70;99.90;;;;;;6247904;22;20237;-79
2023/06/11 08:25:52;;;;;;;11.48;9.63;;;24.70;99.90;;;;;;6249441;22;20011;-77
2023/06/11 08:28:19;;;;;;;11.85;9.45;;;24.80;99.90;;;;;;6225719;22;20008;-78
2023/06/11 08:30:45;;;;;;;11.35;9.20;;;24.80;99.90;;;;;;6250888;22;20018;-78
2023/06/11 08:33:11;;;;;;;13.75;9.00;;;24.90;99.90;;;;;;6250053;22;20518;-77
2023/06/11 08:35:37;;;;;;;14.75;8.75;;;25.00;99.90;;;;;;6225426;22;20014;-77
2023/06/11 08:38:03;;;;;;;11.55;9.05;;;25.10;99.90;;;;;;6225213;22;20008;-77
2023/06/11 08:40:29;;;;;;;11.23;8.93;;;25.30;99.90;;;;;;6225399;22;20011;-77
2023/06/11 08:42:54;;;;;;;13.07;9.20;;;25.30;99.90;;;;;;6248286;22;20384;-78
2023/06/11 08:45:20;;;;;;;12.45;8.93;;;25.30;99.90;;;;;;6250643;22;20012;-77
2023/06/11 08:47:50;;;;;;;13.73;8.85;;;25.40;99.90;;;;;;6249963;22;20541;-77
2023/06/11 08:50:19;;;;;;;10.63;8.63;;;25.60;99.90;;;;;;6250561;22;20341;-77
2023/06/11 08:52:49;;;;;;;12.93;9.73;;;25.60;99.90;;;;;;6224099;22;20097;-79
2023/06/11 08:55:14;;;;;;;11.80;8.90;;;25.70;99.90;;;;;;6249805;22;20043;-79
2023/06/11 08:57:40;;;;;;;13.25;9.18;;;25.70;99.90;;;;;;6224086;22;20012;-80
2023/06/11 09:00:09;;;;;;;10.88;8.80;;;25.70;99.90;;;;;;6223257;22;20015;-79
2023/06/11 09:02:35;;;;;;;11.68;9.25;;;25.80;99.90;;;;;;6224288;22;20018;-79
2023/06/11 09:05:02;;;;;;;10.32;8.40;;;25.90;99.90;;;;;;6249527;22;20480;-79
2023/06/11 09:07:28;;;;;;;11.80;8.38;;;25.90;99.90;;;;;;6250306;22;20026;-79
2023/06/11 09:10:08;;;;;;;11.23;8.82;;;26.00;99.90;;;;;;6248627;22;20354;-79
2023/06/11 09:12:34;;;;;;;9.95;8.80;;;26.20;99.90;;;;;;6247478;22;20011;-79
2023/06/11 09:15:00;;;;;;;10.25;8.48;;;26.30;99.90;;;;;;6249375;22;20061;-83
2023/06/11 09:17:33;;;;;;;10.43;8.52;;;26.20;99.90;;;;;;6224747;22;20073;-79
2023/06/11 09:20:04;;;;;;;11.43;8.63;;;26.40;99.90;;;;;;6224848;22;20362;-79
2023/06/11 09:22:30;;;;;;;10.65;8.38;;;26.50;99.90;;;;;;6250330;22;20030;-79
2023/06/11 09:24:55;;;;;;;12.65;8.35;;;26.50;99.90;;;;;;6249174;22;20497;-79
2023/06/11 09:27:22;;;;;;;11.55;8.75;;;26.60;99.90;;;;;;6224441;22;20012;-79
2023/06/11 09:29:47;;;;;;;10.35;8.35;;;26.70;99.90;;;;;;6250342;22;20007;-80
2023/06/11 09:32:13;;;;;;;11.18;8.68;;;26.70;99.90;;;;;;6224655;22;20438;-79
2023/06/11 09:34:42;;;;;;;9.82;8.25;;;26.80;99.90;;;;;;6225027;22;20030;-79
2023/06/11 09:37:11;;;;;;;10.45;8.18;;;26.90;99.90;;;;;;6224685;22;20082;-79
2023/06/11 09:39:39;;;;;;;12.80;8.25;;;27.00;99.90;;;;;;6224879;22;20023;-78
2023/06/11 09:42:05;;;;;;;10.00;8.05;;;27.10;99.90;;;;;;6249209;22;20016;-79
2023/06/11 09:44:33;;;;;;;10.48;7.88;;;27.10;99.90;;;;;;6248275;22;20015;-79
2023/06/11 09:47:00;;;;;;;9.52;8.13;;;27.20;99.90;;;;;;6250065;22;20004;-79
2023/06/11 09:49:27;;;;;;;12.85;8.60;;;27.20;99.90;;;;;;6249854;22;20015;-78
2023/06/11 09:51:56;;;;;;;10.48;7.93;;;27.30;99.90;;;;;;6249932;22;20078;-80
2023/06/11 09:54:22;;;;;;;10.50;8.05;;;27.30;99.90;;;;;;6224642;22;20454;-79
2023/06/11 09:56:48;;;;;;;12.25;8.02;;;27.40;99.90;;;;;;6224711;22;20015;-80
2023/06/11 09:59:16;;;;;;;12.02;8.48;;;27.40;99.90;;;;;;6224072;22;20054;-80
2023/06/11 10:01:47;;;;;;;10.65;8.02;;;27.50;99.90;;;;;;6223778;22;20016;-80
2023/06/11 10:04:12;;;;;;;11.25;8.15;;;27.50;99.90;;;;;;6224545;22;20018;-80
2023/06/11 10:06:45;;;;;;;9.80;7.72;;;27.60;99.90;;;;;;6249135;22;20011;-79
2023/06/11 10:09:13;;;;;;;11.07;8.35;;;27.70;99.90;;;;;;6224454;22;20437;-79
2023/06/11 10:11:40;;;;;;;9.50;7.68;;;27.60;97.40;;;;;;6249635;22;20040;-78
2023/06/11 10:14:12;;;;;;;19.35;8.50;;;27.70;99.00;;;;;;6224478;22;20091;-79
2023/06/11 10:16:38;;;;;;;11.02;7.82;;;27.80;97.00;;;;;;6248290;22;20018;-79
2023/06/11 10:19:10;;;;;;;10.18;7.60;;;27.70;97.40;;;;;;6249229;22;20016;-79
2023/06/11 10:21:43;;;;;;;10.07;7.72;;;27.70;98.80;;;;;;6224429;22;20095;-78
2023/06/11 10:24:23;;;;;;;10.48;8.05;;;27.70;99.30;;;;;;6224380;22;20016;-78
2023/06/11 10:27:12;;;;;;;9.88;7.57;;;27.90;98.60;;;;;;6224332;22;20019;-79
2023/06/11 10:29:48;;;;;;;10.10;8.25;;;27.90;97.40;;;;;;6249592;22;20004;-77
2023/06/11 10:32:18;;;;;;;10.10;8.02;;;28.00;96.30;;;;;;6224280;22;20014;-77
2023/06/11 10:34:58;;;;;;;10.40;7.88;;;28.10;96.10;;;;;;6247840;22;20039;-77
2023/06/11 10:37:31;;;;;;;12.32;7.65;;;28.10;95.30;;;;;;6249484;22;20021;-77
2023/06/11 10:39:58;;;;;;;10.38;6.90;;;28.10;97.40;;;;;;6249442;22;20102;-77
2023/06/11 10:42:38;;;;;;;9.48;7.32;;;28.20;96.80;;;;;;6249630;22;20039;-76
2023/06/11 10:45:12;;;;;;;8.95;7.53;;;28.30;94.40;;;;;;6249503;22;20019;-77
2023/06/11 10:47:59;;;;;;;10.48;7.55;;;28.20;95.10;;;;;;6249504;22;20008;-77
2023/06/11 10:50:30;;;;;;;11.02;7.47;;;28.30;94.40;;;;;;6224119;22;20345;-76
2023/06/11 10:53:05;;;;;;;9.68;6.78;;;28.40;94.80;;;;;;6248166;22;20469;-76
2023/06/11 10:55:32;;;;;;;8.68;7.10;;;28.50;92.90;;;;;;6249214;22;20446;-77
2023/06/11 10:58:00;;;;;;;9.02;7.25;;;28.40;91.90;;;;;;6249405;22;20450;-77
2023/06/11 11:00:28;;;;;;;12.57;7.10;;;28.30;92.60;;;;;;6249346;22;20125;-77
2023/06/11 11:02:57;;;;;;;8.75;6.43;;;28.30;93.70;;;;;;6221317;22;20032;-77
2023/06/11 11:05:23;;;;;;;9.55;7.10;;;28.40;93.70;;;;;;6220965;22;20395;-77
2023/06/11 11:07:49;;;;;;;9.98;5.97;;;28.60;92.20;;;;;;6222225;22;20015;-78
2023/06/11 11:10:19;;;;;;;10.65;6.80;;;28.60;91.30;;;;;;6247390;22;20026;-77
2023/06/11 11:12:46;;;;;;;10.02;6.75;;;28.70;90.50;;;;;;6222360;22;20043;-77
2023/06/11 11:15:13;;;;;;;8.40;6.50;;;28.60;90.70;;;;;;6222776;22;20015;-77
2023/06/11 11:17:40;;;;;;;8.68;6.35;;;28.60;91.40;;;;;;6247631;22;20011;-77
2023/06/11 11:20:10;;;;;;;8.38;6.28;;;28.70;91.20;;;;;;6222107;22;20445;-77
2023/06/11 11:22:37;;;;;;;9.93;6.90;;;28.80;88.80;;;;;;6222439;22;20011;-76
2023/06/11 11:25:04;;;;;;;10.50;6.32;;;28.80;89.00;;;;;;6248950;22;20341;-77
2023/06/11 11:27:31;;;;;;;10.52;6.53;;;28.70;90.30;;;;;;6248709;22;20019;-77
2023/06/11 11:30:00;;;;;;;9.43;6.50;;;28.80;83.40;;;;;;6248421;22;20055;-77
2023/06/11 11:32:33;;;;;;;11.82;6.63;;;28.90;81.30;;;;;;6223470;22;20438;-78
2023/06/11 11:35:01;;;;;;;9.68;6.70;;;29.10;81.30;;;;;;6248914;22;20037;-77
2023/06/11 11:37:30;;;;;;;9.45;6.43;;;29.10;76.80;;;;;;6223223;22;20453;-77
2023/06/11 11:40:00;;;;;;;10.38;6.38;;;29.10;77.10;;;;;;6248592;22;20015;-77
2023/06/11 11:42:25;;;;;;;8.15;5.40;;;29.20;78.60;;;;;;6223447;22;20392;-80
2023/06/11 11:44:53;;;;;;;8.73;6.15;;;29.20;73.20;;;;;;6249175;22;20015;-77
2023/06/11 11:47:21;;;;;;;11.27;6.55;;;29.10;74.20;;;;;;6248614;22;20047;-77
2023/06/11 11:49:56;;;;;;;9.70;6.13;;;29.10;77.50;;;;;;6224002;22;20102;-78
2023/06/11 11:52:23;;;;;;;9.98;6.30;;;29.10;74.10;;;;;;6248679;22;20011;-78
2023/06/11 11:54:49;;;;;;;9.35;6.38;;;29.10;75.20;;;;;;6248295;22;20518;-78
2023/06/11 11:57:21;;;;;;;11.18;6.20;;;29.00;75.60;;;;;;6223389;22;20023;-78
2023/06/11 11:59:51;;;;;;;8.65;6.43;;;29.10;74.00;;;;;;6223294;22;20054;-78
2023/06/11 12:02:17;;;;;;;11.05;6.75;;;29.10;72.10;;;;;;6222974;22;20114;-78
2023/06/11 12:04:46;;;;;;;17.90;7.30;;;29.00;73.00;;;;;;6223731;22;20039;-79
2023/06/11 12:07:14;;;;;;;8.93;6.22;;;29.10;70.90;;;;;;6204417;22;1051852;-78
2023/06/11 12:09:40;;;;;;;14.88;6.70;;;28.80;71.80;;;;;;6225273;22;20008;-79
2023/06/11 12:12:07;;;;;;;9.85;6.28;;;28.70;73.50;;;;;;6249563;22;20393;-78
2023/06/11 12:14:34;;;;;;;8.85;6.22;;;28.80;72.50;;;;;;6249789;22;20446;-78
2023/06/11 12:17:00;;;;;;;9.13;6.30;;;28.80;72.40;;;;;;6224732;22;20007;-79
2023/06/11 12:19:28;;;;;;;9.15;6.32;;;28.90;71.90;;;;;;6225335;22;20039;-77
2023/06/11 12:21:55;;;;;;;9.57;6.30;;;28.90;70.90;;;;;;6223911;22;20031;-78
2023/06/11 12:24:22;;;;;;;9.82;6.80;;;28.90;73.40;;;;;;6249298;22;20381;-78
2023/06/11 12:26:48;;;;;;;9.15;7.00;;;29.00;71.00;;;;;;6224897;22;20039;-77
2023/06/11 12:29:15;;;;;;;11.60;6.47;;;29.10;68.40;;;;;;6249734;22;20061;-76
2023/06/11 12:31:41;;;;;;;10.52;7.00;;;29.10;68.90;;;;;;6224762;22;20012;-76
2023/06/11 12:34:10;;;;;;;9.00;6.47;;;29.10;69.50;;;;;;6223880;22;20047;-77
2023/06/11 12:36:36;;;;;;;11.68;7.00;;;29.10;66.80;;;;;;6224282;22;20012;-77